sensor_id;sensor_type;location;lat;lon;timestamp;pressure;altitude;pressure_sealevel;temperature;humidity
7836;BME280;3963;42.658;23.298;2023-02-15T00:00:28;58282.41;;;1.90;100.00
7836;BME280;3963;42.658;23.298;2023-02-15T00:02:56;58323.94;;;1.96;100.00
7836;BME280;3963;42.658;23.298;2023-02-15T00:05:23;58294.03;;;1.87;100.00
7836;BME280;3963;42.658;23.298;2023-02-15T00:07:49;58287.69;;;1.81;100.00
7836;BME280;3963;42.658;23.298;2023-02-15T00:10:16;58285.94;;;1.89;100.00
7836;BME280;3963;42.658;23.298;2023-02-15T00:12:43;58276.16;;;1.87;100.00
7836;BME280;3963;42.658;23.298;2023-02-15T00:15:10;58292.19;;;1.78;100.00
7836;BME280;3963;42.658;23.298;2023-02-15T00:17:38;58237.25;;;1.66;100.00
7836;BME280;3963;42.658;23.298;2023-02-15T00:20:08;58277.06;;;1.83;100.00
7836;BME280;3963;42.658;23.298;2023-02-15T00:22:35;58261.31;;;1.85;100.00
7836;BME280;3963;42.658;23.298;2023-02-15T00:25:02;58307.13;;;1.97;100.00
7836;BME280;3963;42.658;23.298;2023-02-15T00:27:29;58299.06;;;1.84;100.00
7836;BME280;3963;42.658;23.298;2023-02-15T00:29:55;58256.75;;;1.71;100.00
7836;BME280;3963;42.658;23.298;2023-02-15T00:32:23;58269.06;;;1.73;100.00
7836;BME280;3963;42.658;23.298;2023-02-15T00:34:49;58288.56;;;1.77;100.00
7836;BME280;3963;42.658;23.298;2023-02-15T00:37:18;58252.88;;;1.77;100.00
7836;BME280;3963;42.658;23.298;2023-02-15T00:39:44;58253.44;;;1.94;100.00
7836;BME280;3963;42.658;23.298;2023-02-15T00:42:11;58304.75;;;2.02;100.00
7836;BME280;3963;42.658;23.298;2023-02-15T00:44:38;58293.47;;;2.01;100.00
7836;BME280;3963;42.658;23.298;2023-02-15T00:47:05;58321.66;;;1.89;100.00
7836;BME280;3963;42.658;23.298;2023-02-15T00:49:31;58288.47;;;1.89;100.00
7836;BME280;3963;42.658;23.298;2023-02-15T00:51:59;58310.47;;;1.90;100.00
7836;BME280;3963;42.658;23.298;2023-02-15T00:54:27;58273.88;;;1.94;100.00
7836;BME280;3963;42.658;23.298;2023-02-15T00:56:54;58285.06;;;1.93;100.00
7836;BME280;3963;42.658;23.298;2023-02-15T00:59:20;58293.06;;;1.88;100.00
7836;BME280;3963;42.658;23.298;2023-02-15T01:01:47;58253.75;;;1.87;100.00
7836;BME280;3963;42.658;23.298;2023-02-15T01:04:14;58285.94;;;1.89;100.00
7836;BME280;3963;42.658;23.298;2023-02-15T01:06:40;58287.53;;;1.90;100.00
7836;BME280;3963;42.658;23.298;2023-02-15T01:09:07;58270.00;;;1.86;100.00
7836;BME280;3963;42.658;23.298;2023-02-15T01:11:35;58310.41;;;1.88;100.00
7836;BME280;3963;42.658;23.298;2023-02-15T01:14:02;58295.09;;;1.88;100.00
7836;BME280;3963;42.658;23.298;2023-02-15T01:16:32;58296.66;;;2.04;100.00
7836;BME280;3963;42.658;23.298;2023-02-15T01:18:59;58290.75;;;1.96;100.00
7836;BME280;3963;42.658;23.298;2023-02-15T01:21:28;58265.53;;;1.89;100.00
7836;BME280;3963;42.658;23.298;2023-02-15T01:23:54;58311.78;;;1.99;100.00
7836;BME280;3963;42.658;23.298;2023-02-15T01:26:21;58290.59;;;1.91;100.00
7836;BME280;3963;42.658;23.298;2023-02-15T01:28:49;58268.44;;;1.84;100.00
7836;BME280;3963;42.658;23.298;2023-02-15T01:31:17;58278.03;;;1.81;100.00
7836;BME280;3963;42.658;23.298;2023-02-15T01:33:45;58244.88;;;1.81;100.00
7836;BME280;3963;42.658;23.298;2023-02-15T01:36:12;58248.38;;;1.80;100.00
7836;BME280;3963;42.658;23.298;2023-02-15T01:38:39;58278.56;;;1.82;100.00
7836;BME280;3963;42.658;23.298;2023-02-15T01:41:07;58276.28;;;1.75;100.00
7836;BME280;3963;42.658;23.298;2023-02-15T01:43:51;58263.06;;;1.77;100.00
7836;BME280;3963;42.658;23.298;2023-02-15T01:46:22;58281.91;;;1.75;100.00
7836;BME280;3963;42.658;23.298;2023-02-15T01:48:55;58261.22;;;1.82;100.00
7836;BME280;3963;42.658;23.298;2023-02-15T01:51:24;58245.41;;;1.67;100.00
7836;BME280;3963;42.658;23.298;2023-02-15T01:53:58;58277.06;;;1.68;100.00
7836;BME280;3963;42.658;23.298;2023-02-15T01:56:29;58298.88;;;1.79;100.00
7836;BME280;3963;42.658;23.298;2023-02-15T01:59:01;58282.69;;;1.68;100.00
7836;BME280;3963;42.658;23.298;2023-02-15T02:01:29;58253.59;;;1.67;100.00
7836;BME280;3963;42.658;23.298;2023-02-15T02:04:00;58248.31;;;1.62;100.00
7836;BME280;3963;42.658;23.298;2023-02-15T02:06:29;58243.47;;;1.70;100.00
7836;BME280;3963;42.658;23.298;2023-02-15T02:08:56;58246.75;;;1.61;100.00
7836;BME280;3963;42.658;23.298;2023-02-15T02:11:23;58237.06;;;1.61;100.00
7836;BME280;3963;42.658;23.298;2023-02-15T02:13:51;58283.22;;;1.69;100.00
7836;BME280;3963;42.658;23.298;2023-02-15T02:16:24;58261.84;;;1.71;100.00
7836;BME280;3963;42.658;23.298;2023-02-15T02:19:11;58246.44;;;1.83;100.00
7836;BME280;3963;42.658;23.298;2023-02-15T02:24:58;58276.63;;;1.85;100.00
7836;BME280;3963;42.658;23.298;2023-02-15T02:27:36;58284.69;;;1.97;100.00
7836;BME280;3963;42.658;23.298;2023-02-15T02:30:40;58282.56;;;1.95;100.00
7836;BME280;3963;42.658;23.298;2023-02-15T02:33:47;58278.97;;;1.94;100.00
7836;BME280;3963;42.658;23.298;2023-02-15T02:36:24;58300.09;;;2.00;100.00
7836;BME280;3963;42.658;23.298;2023-02-15T02:39:05;58333.59;;;2.10;100.00
7836;BME280;3963;42.658;23.298;2023-02-15T02:41:38;58333.34;;;2.02;100.00
7836;BME280;3963;42.658;23.298;2023-02-15T02:44:13;58278.09;;;1.84;100.00
7836;BME280;3963;42.658;23.298;2023-02-15T02:46:48;58309.31;;;2.01;100.00
7836;BME280;3963;42.658;23.298;2023-02-15T02:49:29;58307.47;;;2.07;100.00
7836;BME280;3963;42.658;23.298;2023-02-15T02:51:58;58299.88;;;2.24;100.00
7836;BME280;3963;42.658;23.298;2023-02-15T02:54:25;58337.34;;;2.31;100.00
7836;BME280;3963;42.658;23.298;2023-02-15T02:56:54;58330.75;;;2.32;100.00
7836;BME280;3963;42.658;23.298;2023-02-15T02:59:27;58324.81;;;2.21;100.00
7836;BME280;3963;42.658;23.298;2023-02-15T03:01:58;58344.25;;;2.22;100.00
7836;BME280;3963;42.658;23.298;2023-02-15T03:04:32;58324.00;;;2.13;100.00
7836;BME280;3963;42.658;23.298;2023-02-15T03:07:01;58349.19;;;2.17;100.00
7836;BME280;3963;42.658;23.298;2023-02-15T03:09:31;58321.09;;;2.17;100.00
7836;BME280;3963;42.658;23.298;2023-02-15T03:12:07;58289.25;;;2.11;100.00
7836;BME280;3963;42.658;23.298;2023-02-15T03:14:35;58299.53;;;2.14;100.00
7836;BME280;3963;42.658;23.298;2023-02-15T03:17:03;58288.63;;;2.08;100.00
7836;BME280;3963;42.658;23.298;2023-02-15T03:19:33;58308.38;;;2.03;100.00
7836;BME280;3963;42.658;23.298;2023-02-15T03:22:04;58324.28;;;2.06;100.00
7836;BME280;3963;42.658;23.298;2023-02-15T03:24:37;58297.09;;;2.02;100.00
7836;BME280;3963;42.658;23.298;2023-02-15T03:27:09;58318.03;;;2.02;100.00
7836;BME280;3963;42.658;23.298;2023-02-15T03:29:37;58335.88;;;2.17;100.00
7836;BME280;3963;42.658;23.298;2023-02-15T03:32:08;58340.63;;;2.21;100.00
7836;BME280;3963;42.658;23.298;2023-02-15T03:34:38;58307.09;;;2.26;100.00
7836;BME280;3963;42.658;23.298;2023-02-15T03:37:10;58333.06;;;2.24;100.00
7836;BME280;3963;42.658;23.298;2023-02-15T03:39:43;58326.38;;;2.22;100.00
7836;BME280;3963;42.658;23.298;2023-02-15T03:42:16;58326.19;;;2.32;100.00
7836;BME280;3963;42.658;23.298;2023-02-15T03:44:50;58360.97;;;2.19;100.00
7836;BME280;3963;42.658;23.298;2023-02-15T03:47:21;58310.06;;;2.24;100.00
7836;BME280;3963;42.658;23.298;2023-02-15T03:49:54;58311.22;;;2.28;100.00
7836;BME280;3963;42.658;23.298;2023-02-15T03:52:24;58330.22;;;2.31;100.00
7836;BME280;3963;42.658;23.298;2023-02-15T03:54:52;58345.13;;;2.18;100.00
7836;BME280;3963;42.658;23.298;2023-02-15T03:57:21;58307.72;;;2.14;100.00
7836;BME280;3963;42.658;23.298;2023-02-15T04:00:12;58298.13;;;2.17;100.00
7836;BME280;3963;42.658;23.298;2023-02-15T04:03:11;58321.97;;;2.13;100.00
7836;BME280;3963;42.658;23.298;2023-02-15T04:05:41;58298.31;;;2.08;100.00
7836;BME280;3963;42.658;23.298;2023-02-15T04:08:09;58302.09;;;2.14;100.00
7836;BME280;3963;42.658;23.298;2023-02-15T04:10:35;58265.94;;;2.01;100.00
7836;BME280;3963;42.658;23.298;2023-02-15T04:13:22;58325.22;;;2.19;100.00
7836;BME280;3963;42.658;23.298;2023-02-15T04:15:50;58281.69;;;2.14;100.00
7836;BME280;3963;42.658;23.298;2023-02-15T04:18:28;58322.06;;;2.16;100.00
7836;BME280;3963;42.658;23.298;2023-02-15T04:21:14;58300.59;;;2.15;100.00
7836;BME280;3963;42.658;23.298;2023-02-15T04:23:58;58326.63;;;2.15;100.00
7836;BME280;3963;42.658;23.298;2023-02-15T04:26:42;58324.44;;;2.11;100.00
7836;BME280;3963;42.658;23.298;2023-02-15T04:29:09;58313.16;;;2.24;100.00
7836;BME280;3963;42.658;23.298;2023-02-15T04:31:36;58346.53;;;2.30;100.00
7836;BME280;3963;42.658;23.298;2023-02-15T04:34:03;58350.50;;;2.26;100.00
7836;BME280;3963;42.658;23.298;2023-02-15T04:36:31;58318.88;;;2.28;100.00
7836;BME280;3963;42.658;23.298;2023-02-15T04:38:58;58330.50;;;2.24;100.00
7836;BME280;3963;42.658;23.298;2023-02-15T04:41:25;58346.72;;;2.20;100.00
7836;BME280;3963;42.658;23.298;2023-02-15T04:43:52;58308.41;;;2.20;100.00
7836;BME280;3963;42.658;23.298;2023-02-15T04:46:19;58322.69;;;2.19;100.00
7836;BME280;3963;42.658;23.298;2023-02-15T04:48:46;58349.69;;;2.33;100.00
7836;BME280;3963;42.658;23.298;2023-02-15T04:51:13;58320.56;;;2.32;100.00
7836;BME280;3963;42.658;23.298;2023-02-15T04:53:41;58306.75;;;2.16;100.00
7836;BME280;3963;42.658;23.298;2023-02-15T04:56:08;58296.44;;;2.28;100.00
7836;BME280;3963;42.658;23.298;2023-02-15T04:58:35;58319.09;;;2.18;100.00
7836;BME280;3963;42.658;23.298;2023-02-15T05:01:02;58318.03;;;2.17;100.00
7836;BME280;3963;42.658;23.298;2023-02-15T05:03:29;58316.69;;;2.23;100.00
7836;BME280;3963;42.658;23.298;2023-02-15T05:05:56;58337.53;;;2.36;100.00
7836;BME280;3963;42.658;23.298;2023-02-15T05:08:23;58308.31;;;2.32;100.00
7836;BME280;3963;42.658;23.298;2023-02-15T05:10:52;58319.25;;;2.23;100.00
7836;BME280;3963;42.658;23.298;2023-02-15T05:13:18;58301.00;;;2.28;100.00
7836;BME280;3963;42.658;23.298;2023-02-15T05:15:49;58328.75;;;2.32;100.00
7836;BME280;3963;42.658;23.298;2023-02-15T05:18:16;58301.69;;;2.33;100.00
7836;BME280;3963;42.658;23.298;2023-02-15T05:20:43;58328.41;;;2.22;100.00
7836;BME280;3963;42.658;23.298;2023-02-15T05:23:10;58332.63;;;2.26;100.00
7836;BME280;3963;42.658;23.298;2023-02-15T05:25:37;58337.13;;;2.23;100.00
7836;BME280;3963;42.658;23.298;2023-02-15T05:28:26;58294.16;;;2.21;100.00
7836;BME280;3963;42.658;23.298;2023-02-15T05:31:02;58328.69;;;2.15;100.00
7836;BME280;3963;42.658;23.298;2023-02-15T05:33:29;58346.31;;;2.39;100.00
7836;BME280;3963;42.658;23.298;2023-02-15T05:35:56;58328.41;;;2.22;100.00
7836;BME280;3963;42.658;23.298;2023-02-15T05:38:23;58324.09;;;2.15;100.00
7836;BME280;3963;42.658;23.298;2023-02-15T05:40:50;58315.09;;;2.21;100.00
7836;BME280;3963;42.658;23.298;2023-02-15T05:43:17;58316.41;;;2.30;100.00
7836;BME280;3963;42.658;23.298;2023-02-15T05:45:47;58324.59;;;2.31;100.00
7836;BME280;3963;42.658;23.298;2023-02-15T05:48:14;58345.09;;;2.33;100.00
7836;BME280;3963;42.658;23.298;2023-02-15T05:50:41;58326.53;;;2.28;100.00
7836;BME280;3963;42.658;23.298;2023-02-15T05:53:08;58330.88;;;2.19;100.00
7836;BME280;3963;42.658;23.298;2023-02-15T05:55:37;58321.97;;;2.28;100.00
7836;BME280;3963;42.658;23.298;2023-02-15T05:58:04;58312.63;;;2.24;100.00
7836;BME280;3963;42.658;23.298;2023-02-15T06:00:30;58329.81;;;2.18;100.00
7836;BME280;3963;42.658;23.298;2023-02-15T06:03:00;58349.97;;;2.26;100.00
7836;BME280;3963;42.658;23.298;2023-02-15T06:05:26;58323.72;;;2.35;100.00
7836;BME280;3963;42.658;23.298;2023-02-15T06:07:53;58349.31;;;2.37;100.00
7836;BME280;3963;42.658;23.298;2023-02-15T06:10:20;58331.09;;;2.42;100.00
7836;BME280;3963;42.658;23.298;2023-02-15T06:12:46;58395.38;;;2.40;100.00
7836;BME280;3963;42.658;23.298;2023-02-15T06:15:13;58343.44;;;2.44;100.00
7836;BME280;3963;42.658;23.298;2023-02-15T06:17:40;58331.72;;;2.45;100.00
7836;BME280;3963;42.658;23.298;2023-02-15T06:20:10;58363.66;;;2.53;100.00
7836;BME280;3963;42.658;23.298;2023-02-15T06:22:36;58369.13;;;2.49;100.00
7836;BME280;3963;42.658;23.298;2023-02-15T06:25:03;58384.97;;;2.49;100.00
7836;BME280;3963;42.658;23.298;2023-02-15T06:27:30;58376.00;;;2.55;100.00
7836;BME280;3963;42.658;23.298;2023-02-15T06:29:57;58417.53;;;2.75;100.00
7836;BME280;3963;42.658;23.298;2023-02-15T06:32:24;58387.78;;;2.71;100.00
7836;BME280;3963;42.658;23.298;2023-02-15T06:34:51;58405.22;;;2.73;100.00
7836;BME280;3963;42.658;23.298;2023-02-15T06:37:19;58399.22;;;2.77;100.00
7836;BME280;3963;42.658;23.298;2023-02-15T06:39:45;58403.28;;;2.76;100.00
7836;BME280;3963;42.658;23.298;2023-02-15T06:42:12;58393.06;;;2.76;100.00
7836;BME280;3963;42.658;23.298;2023-02-15T06:44:39;58363.97;;;2.78;100.00
7836;BME280;3963;42.658;23.298;2023-02-15T06:47:06;58383.09;;;2.69;100.00
7836;BME280;3963;42.658;23.298;2023-02-15T06:49:32;58435.94;;;2.91;100.00
7836;BME280;3963;42.658;23.298;2023-02-15T06:51:59;58433.56;;;2.96;100.00
7836;BME280;3963;42.658;23.298;2023-02-15T06:54:27;58404.13;;;2.87;100.00
7836;BME280;3963;42.658;23.298;2023-02-15T06:56:54;58409.66;;;3.00;100.00
7836;BME280;3963;42.658;23.298;2023-02-15T06:59:21;58390.47;;;2.91;100.00
7836;BME280;3963;42.658;23.298;2023-02-15T07:01:49;58376.19;;;2.92;100.00
7836;BME280;3963;42.658;23.298;2023-02-15T07:04:16;58406.31;;;3.06;100.00
7836;BME280;3963;42.658;23.298;2023-02-15T07:06:42;58507.78;;;3.27;100.00
7836;BME280;3963;42.658;23.298;2023-02-15T07:09:09;58447.31;;;3.09;100.00
7836;BME280;3963;42.658;23.298;2023-02-15T07:11:37;58440.06;;;3.21;100.00
7836;BME280;3963;42.658;23.298;2023-02-15T07:14:22;58464.91;;;3.30;100.00
7836;BME280;3963;42.658;23.298;2023-02-15T07:16:49;58460.50;;;3.36;100.00
7836;BME280;3963;42.658;23.298;2023-02-15T07:19:15;58522.91;;;3.66;100.00
7836;BME280;3963;42.658;23.298;2023-02-15T07:21:42;58488.75;;;3.56;100.00
7836;BME280;3963;42.658;23.298;2023-02-15T07:24:10;58534.03;;;3.62;100.00
7836;BME280;3963;42.658;23.298;2023-02-15T07:26:39;58519.03;;;3.72;100.00
7836;BME280;3963;42.658;23.298;2023-02-15T07:29:05;58497.59;;;3.59;100.00
7836;BME280;3963;42.658;23.298;2023-02-15T07:31:32;58515.69;;;3.64;100.00
7836;BME280;3963;42.658;23.298;2023-02-15T07:33:59;58531.16;;;3.99;100.00
7836;BME280;3963;42.658;23.298;2023-02-15T07:36:26;58513.22;;;3.99;100.00
7836;BME280;3963;42.658;23.298;2023-02-15T07:38:52;58562.66;;;4.07;100.00
7836;BME280;3963;42.658;23.298;2023-02-15T07:41:19;58568.47;;;4.27;100.00
7836;BME280;3963;42.658;23.298;2023-02-15T07:43:47;58591.69;;;4.32;100.00
7836;BME280;3963;42.658;23.298;2023-02-15T07:46:15;58621.50;;;4.65;100.00
7836;BME280;3963;42.658;23.298;2023-02-15T07:48:43;58649.22;;;4.82;100.00
7836;BME280;3963;42.658;23.298;2023-02-15T07:51:11;58632.00;;;4.58;100.00
7836;BME280;3963;42.658;23.298;2023-02-15T07:53:38;58619.81;;;4.61;100.00
7836;BME280;3963;42.658;23.298;2023-02-15T07:56:08;58624.50;;;4.63;100.00
7836;BME280;3963;42.658;23.298;2023-02-15T07:58:35;58639.47;;;4.51;100.00
7836;BME280;3963;42.658;23.298;2023-02-15T08:01:20;58601.91;;;4.46;100.00
7836;BME280;3963;42.658;23.298;2023-02-15T08:03:48;58604.03;;;4.34;100.00
7836;BME280;3963;42.658;23.298;2023-02-15T08:06:14;58614.47;;;4.39;100.00
7836;BME280;3963;42.658;23.298;2023-02-15T08:08:41;58595.03;;;4.40;100.00
7836;BME280;3963;42.658;23.298;2023-02-15T08:11:16;58633.72;;;4.47;100.00
7836;BME280;3963;42.658;23.298;2023-02-15T08:13:55;58633.00;;;4.57;100.00
7836;BME280;3963;42.658;23.298;2023-02-15T08:16:28;58646.25;;;4.55;100.00
7836;BME280;3963;42.658;23.298;2023-02-15T08:18:55;58640.41;;;4.49;99.75
7836;BME280;3963;42.658;23.298;2023-02-15T08:21:23;58624.09;;;4.36;100.00
7836;BME280;3963;42.658;23.298;2023-02-15T08:23:51;58571.38;;;4.22;100.00
7836;BME280;3963;42.658;23.298;2023-02-15T08:26:18;58616.75;;;4.46;100.00
7836;BME280;3963;42.658;23.298;2023-02-15T08:28:45;58560.78;;;4.27;100.00
7836;BME280;3963;42.658;23.298;2023-02-15T08:31:13;58618.19;;;4.28;100.00
7836;BME280;3963;42.658;23.298;2023-02-15T08:33:42;58624.50;;;4.48;100.00
7836;BME280;3963;42.658;23.298;2023-02-15T08:36:11;58542.47;;;4.31;100.00
7836;BME280;3963;42.658;23.298;2023-02-15T08:38:39;58632.50;;;4.27;100.00
7836;BME280;3963;42.658;23.298;2023-02-15T08:41:10;58619.59;;;4.24;100.00
7836;BME280;3963;42.658;23.298;2023-02-15T08:43:37;58593.28;;;4.19;100.00
7836;BME280;3963;42.658;23.298;2023-02-15T08:46:04;58582.34;;;4.13;100.00
7836;BME280;3963;42.658;23.298;2023-02-15T08:48:31;58570.72;;;3.87;100.00
7836;BME280;3963;42.658;23.298;2023-02-15T08:51:04;58586.94;;;4.13;100.00
7836;BME280;3963;42.658;23.298;2023-02-15T08:53:32;58584.44;;;4.15;100.00
7836;BME280;3963;42.658;23.298;2023-02-15T08:55:59;58624.00;;;4.33;100.00
7836;BME280;3963;42.658;23.298;2023-02-15T08:58:26;58618.44;;;4.35;100.00
7836;BME280;3963;42.658;23.298;2023-02-15T09:00:52;58617.78;;;4.62;100.00
7836;BME280;3963;42.658;23.298;2023-02-15T09:03:19;58586.16;;;4.51;100.00
7836;BME280;3963;42.658;23.298;2023-02-15T09:05:46;58636.09;;;4.42;100.00
7836;BME280;3963;42.658;23.298;2023-02-15T09:08:14;58637.63;;;4.41;100.00
7836;BME280;3963;42.658;23.298;2023-02-15T09:10:41;58574.09;;;4.42;100.00
7836;BME280;3963;42.658;23.298;2023-02-15T09:13:08;58648.56;;;4.47;98.39
7836;BME280;3963;42.658;23.298;2023-02-15T09:15:34;58624.31;;;4.58;98.55
7836;BME280;3963;42.658;23.298;2023-02-15T09:18:02;58675.06;;;4.58;98.56
7836;BME280;3963;42.658;23.298;2023-02-15T09:20:31;58639.78;;;4.61;100.00
7836;BME280;3963;42.658;23.298;2023-02-15T09:22:58;58678.06;;;4.70;99.28
7836;BME280;3963;42.658;23.298;2023-02-15T09:25:27;58651.81;;;4.67;98.58
7836;BME280;3963;42.658;23.298;2023-02-15T09:27:54;58660.72;;;4.73;98.49
7836;BME280;3963;42.658;23.298;2023-02-15T09:30:21;58648.16;;;4.66;98.16
7836;BME280;3963;42.658;23.298;2023-02-15T09:32:48;58704.03;;;4.95;98.49
7836;BME280;3963;42.658;23.298;2023-02-15T09:35:15;58651.34;;;4.69;99.32
7836;BME280;3963;42.658;23.298;2023-02-15T09:37:41;58677.34;;;4.79;97.49
7836;BME280;3963;42.658;23.298;2023-02-15T09:40:11;58630.94;;;4.72;97.62
7836;BME280;3963;42.658;23.298;2023-02-15T09:42:57;58682.09;;;4.84;97.88
7836;BME280;3963;42.658;23.298;2023-02-15T09:45:42;58641.97;;;4.80;97.72
7836;BME280;3963;42.658;23.298;2023-02-15T09:48:23;58682.97;;;4.94;95.82
7836;BME280;3963;42.658;23.298;2023-02-15T09:51:05;58676.78;;;4.93;95.34
7836;BME280;3963;42.658;23.298;2023-02-15T09:53:51;58678.03;;;4.85;95.33
7836;BME280;3963;42.658;23.298;2023-02-15T09:56:29;58681.63;;;5.00;95.33
7836;BME280;3963;42.658;23.298;2023-02-15T09:59:03;58661.38;;;4.93;95.47
7836;BME280;3963;42.658;23.298;2023-02-15T10:01:40;58667.75;;;4.99;96.10
7836;BME280;3963;42.658;23.298;2023-02-15T10:04:22;58707.28;;;5.00;96.56
7836;BME280;3963;42.658;23.298;2023-02-15T10:06:59;58721.84;;;5.22;94.27
7836;BME280;3963;42.658;23.298;2023-02-15T10:09:55;58711.78;;;5.12;93.42
7836;BME280;3963;42.658;23.298;2023-02-15T10:12:44;58696.56;;;5.02;94.31
7836;BME280;3963;42.658;23.298;2023-02-15T10:15:23;58688.72;;;4.97;95.01
7836;BME280;3963;42.658;23.298;2023-02-15T10:18:03;58657.88;;;4.80;95.67
7836;BME280;3963;42.658;23.298;2023-02-15T10:20:43;58642.78;;;4.73;96.73
7836;BME280;3963;42.658;23.298;2023-02-15T10:23:30;58660.91;;;4.64;96.88
7836;BME280;3963;42.658;23.298;2023-02-15T10:26:05;58637.66;;;4.73;97.75
7836;BME280;3963;42.658;23.298;2023-02-15T10:28:43;58676.97;;;4.98;96.02
7836;BME280;3963;42.658;23.298;2023-02-15T10:31:20;58686.78;;;5.00;94.29
7836;BME280;3963;42.658;23.298;2023-02-15T10:33:56;58698.06;;;5.16;94.59
7836;BME280;3963;42.658;23.298;2023-02-15T10:36:38;58732.28;;;5.27;91.86
7836;BME280;3963;42.658;23.298;2023-02-15T10:39:16;58737.56;;;5.46;90.50
7836;BME280;3963;42.658;23.298;2023-02-15T10:41:51;58771.09;;;5.51;90.16
7836;BME280;3963;42.658;23.298;2023-02-15T10:44:35;58801.06;;;6.02;86.52
7836;BME280;3963;42.658;23.298;2023-02-15T10:50:26;58949.13;;;6.94;77.64
7836;BME280;3963;42.658;23.298;2023-02-15T10:53:07;58962.78;;;7.16;78.53
7836;BME280;3963;42.658;23.298;2023-02-15T10:55:46;59091.25;;;7.99;74.34
7836;BME280;3963;42.658;23.298;2023-02-15T10:58:17;59187.38;;;8.80;71.37
7836;BME280;3963;42.658;23.298;2023-02-15T11:00:54;59274.41;;;9.51;68.78
7836;BME280;3963;42.658;23.298;2023-02-15T11:03:45;59378.34;;;10.27;65.01
7836;BME280;3963;42.658;23.298;2023-02-15T11:06:18;59248.88;;;9.43;65.94
7836;BME280;3963;42.658;23.298;2023-02-15T11:08:48;59212.34;;;8.87;69.79
7836;BME280;3963;42.658;23.298;2023-02-15T11:11:21;59242.41;;;9.20;67.58
7836;BME280;3963;42.658;23.298;2023-02-15T11:13:52;59298.69;;;9.81;66.81
7836;BME280;3963;42.658;23.298;2023-02-15T11:16:23;59236.81;;;9.08;67.91
7836;BME280;3963;42.658;23.298;2023-02-15T11:18:56;59285.22;;;9.34;67.34
7836;BME280;3963;42.658;23.298;2023-02-15T11:21:32;59254.63;;;9.00;67.25
7836;BME280;3963;42.658;23.298;2023-02-15T11:24:10;59265.41;;;9.13;67.33
7836;BME280;3963;42.658;23.298;2023-02-15T11:26:40;59168.53;;;8.58;68.90
7836;BME280;3963;42.658;23.298;2023-02-15T11:29:13;59113.00;;;8.17;70.98
7836;BME280;3963;42.658;23.298;2023-02-15T11:31:46;59121.66;;;7.99;71.79
7836;BME280;3963;42.658;23.298;2023-02-15T11:34:18;59098.91;;;7.82;73.13
7836;BME280;3963;42.658;23.298;2023-02-15T11:36:50;59072.69;;;7.84;73.20
7836;BME280;3963;42.658;23.298;2023-02-15T11:39:20;59077.91;;;8.01;71.86
7836;BME280;3963;42.658;23.298;2023-02-15T11:41:50;59154.31;;;8.49;70.42
7836;BME280;3963;42.658;23.298;2023-02-15T11:44:21;59169.06;;;8.58;68.78
7836;BME280;3963;42.658;23.298;2023-02-15T11:46:51;59132.47;;;8.28;70.28
7836;BME280;3963;42.658;23.298;2023-02-15T11:49:29;59119.84;;;8.07;70.68
7836;BME280;3963;42.658;23.298;2023-02-15T11:51:59;59184.94;;;8.54;69.47
7836;BME280;3963;42.658;23.298;2023-02-15T11:54:29;59213.84;;;9.01;67.01
7836;BME280;3963;42.658;23.298;2023-02-15T11:57:02;59171.97;;;8.83;66.06
7836;BME280;3963;42.658;23.298;2023-02-15T11:59:33;59127.75;;;8.41;68.46
7836;BME280;3963;42.658;23.298;2023-02-15T12:02:02;59075.81;;;7.85;70.71
7836;BME280;3963;42.658;23.298;2023-02-15T12:04:31;59050.59;;;7.70;71.34
7836;BME280;3963;42.658;23.298;2023-02-15T12:07:04;59084.34;;;7.78;72.54
7836;BME280;3963;42.658;23.298;2023-02-15T12:09:43;59045.53;;;7.73;72.93
7836;BME280;3963;42.658;23.298;2023-02-15T12:12:23;59062.03;;;7.74;71.66
7836;BME280;3963;42.658;23.298;2023-02-15T12:14:51;58976.69;;;7.17;74.43
7836;BME280;3963;42.658;23.298;2023-02-15T12:17:21;58981.88;;;7.03;75.87
7836;BME280;3963;42.658;23.298;2023-02-15T12:19:50;58987.06;;;7.20;77.05
7836;BME280;3963;42.658;23.298;2023-02-15T12:22:24;59012.03;;;7.27;76.25
7836;BME280;3963;42.658;23.298;2023-02-15T12:24:54;58955.81;;;6.78;77.19
7836;BME280;3963;42.658;23.298;2023-02-15T12:27:24;58963.91;;;6.74;78.42
7836;BME280;3963;42.658;23.298;2023-02-15T12:29:56;58966.19;;;6.66;79.46
7836;BME280;3963;42.658;23.298;2023-02-15T12:32:25;58897.22;;;6.49;79.98
7836;BME280;3963;42.658;23.298;2023-02-15T12:34:55;58913.72;;;6.50;81.21
7836;BME280;3963;42.658;23.298;2023-02-15T12:37:29;58903.00;;;6.52;80.41
7836;BME280;3963;42.658;23.298;2023-02-15T12:40:00;58894.66;;;6.49;81.01
7836;BME280;3963;42.658;23.298;2023-02-15T12:42:41;58910.63;;;6.50;81.86
7836;BME280;3963;42.658;23.298;2023-02-15T12:45:21;58903.28;;;6.31;82.54
7836;BME280;3963;42.658;23.298;2023-02-15T12:48:08;58870.25;;;6.11;83.94
7836;BME280;3963;42.658;23.298;2023-02-15T12:50:36;58879.44;;;6.25;84.06
7836;BME280;3963;42.658;23.298;2023-02-15T12:53:14;58880.59;;;6.29;83.62
7836;BME280;3963;42.658;23.298;2023-02-15T12:55:50;58875.00;;;6.31;83.46
7836;BME280;3963;42.658;23.298;2023-02-15T12:58:18;58891.94;;;6.30;83.22
7836;BME280;3963;42.658;23.298;2023-02-15T13:00:47;58869.78;;;6.13;83.06
7836;BME280;3963;42.658;23.298;2023-02-15T13:03:17;58868.00;;;6.22;83.39
7836;BME280;3963;42.658;23.298;2023-02-15T13:05:46;58872.81;;;6.11;84.53
7836;BME280;3963;42.658;23.298;2023-02-15T13:08:17;58869.88;;;6.16;84.87
7836;BME280;3963;42.658;23.298;2023-02-15T13:10:53;58892.47;;;6.30;83.13
7836;BME280;3963;42.658;23.298;2023-02-15T13:13:23;58857.22;;;6.06;84.39
7836;BME280;3963;42.658;23.298;2023-02-15T13:15:52;58874.41;;;5.98;84.83
7836;BME280;3963;42.658;23.298;2023-02-15T13:18:28;58855.63;;;6.05;85.51
7836;BME280;3963;42.658;23.298;2023-02-15T13:20:56;58840.56;;;6.15;84.52
7836;BME280;3963;42.658;23.298;2023-02-15T13:23:27;58894.06;;;6.17;84.28
7836;BME280;3963;42.658;23.298;2023-02-15T13:25:55;58880.06;;;6.13;84.44
7836;BME280;3963;42.658;23.298;2023-02-15T13:28:27;58885.19;;;6.28;84.61
7836;BME280;3963;42.658;23.298;2023-02-15T13:31:00;58895.13;;;6.33;82.69
7836;BME280;3963;42.658;23.298;2023-02-15T13:33:31;58901.94;;;6.37;83.18
7836;BME280;3963;42.658;23.298;2023-02-15T13:36:06;58888.22;;;6.26;83.26
7836;BME280;3963;42.658;23.298;2023-02-15T13:38:52;58905.31;;;6.45;84.06
7836;BME280;3963;42.658;23.298;2023-02-15T13:41:26;58907.34;;;6.59;82.36